createdAt,value
2022-08-09T00:00:59.073Z,2.17
2022-08-09T00:04:06.091Z,1.90
2022-08-09T00:06:23.219Z,2.00
2022-08-09T00:08:52.382Z,2.20
2022-08-09T00:11:54.973Z,2.13
2022-08-09T00:14:21.784Z,2.30
2022-08-09T00:16:56.987Z,1.97
2022-08-09T00:19:27.673Z,1.93
2022-08-09T00:21:57.040Z,2.30
2022-08-09T00:24:27.440Z,1.90
2022-08-09T00:26:56.153Z,2.07
2022-08-09T00:29:39.529Z,1.80
2022-08-09T00:32:14.284Z,2.00
2022-08-09T00:34:55.475Z,2.20
2022-08-09T00:37:24.182Z,2.30
2022-08-09T00:40:12.498Z,2.20
2022-08-09T00:44:14.578Z,2.00
2022-08-09T00:45:29.317Z,1.90
2022-08-09T00:47:58.039Z,2.00
2022-08-09T00:50:29.160Z,2.17
2022-08-09T00:52:57.870Z,2.20
2022-08-09T00:56:03.052Z,2.00
2022-08-09T00:58:25.482Z,1.87
2022-08-09T01:00:59.064Z,2.00
2022-08-09T01:03:33.110Z,2.03
2022-08-09T01:06:17.390Z,2.03
2022-08-09T01:08:51.625Z,2.10
2022-08-09T01:11:26.022Z,1.87
2022-08-09T01:13:59.323Z,2.10
2022-08-09T01:16:35.202Z,2.20
2022-08-09T01:19:16.910Z,2.20
2022-08-09T01:22:07.426Z,1.87
2022-08-09T01:24:50.403Z,1.77
2022-08-09T01:27:27.044Z,2.20
2022-08-09T01:29:59.588Z,1.80
2022-08-09T01:32:36.029Z,1.87
2022-08-09T01:35:28.444Z,2.20
2022-08-09T01:38:08.461Z,2.07
2022-08-09T01:40:40.771Z,2.10
2022-08-09T01:43:11.371Z,1.87
2022-08-09T01:45:46.064Z,1.87
2022-08-09T01:48:17.583Z,1.80
2022-08-09T01:50:55.010Z,2.30
2022-08-09T01:53:29.226Z,2.00
2022-08-09T01:56:10.279Z,2.20
2022-08-09T01:58:40.698Z,1.87
2022-08-09T02:01:09.554Z,1.73
2022-08-09T02:03:46.952Z,2.10
2022-08-09T02:06:16.663Z,1.83
2022-08-09T02:08:58.476Z,1.90
2022-08-09T02:11:42.886Z,1.90
2022-08-09T02:14:15.121Z,2.10
2022-08-09T02:17:15.138Z,2.30
2022-08-09T02:19:43.656Z,1.90
2022-08-09T02:22:31.593Z,1.93
2022-08-09T02:25:04.470Z,1.97
2022-08-09T02:27:57.754Z,2.13
2022-08-09T02:30:27.114Z,2.00
2022-08-09T02:32:56.937Z,1.93
2022-08-09T02:36:01.457Z,2.17
2022-08-09T02:38:28.017Z,2.20
2022-08-09T02:40:59.348Z,2.10
2022-08-09T02:43:28.870Z,2.40
2022-08-09T02:45:59.959Z,2.30
2022-08-09T02:48:31.015Z,2.07
2022-08-09T02:51:01.768Z,2.10
2022-08-09T02:53:34.275Z,2.27
2022-08-09T02:56:03.906Z,2.23
2022-08-09T02:58:37.623Z,2.23
2022-08-09T03:01:11.246Z,2.20
2022-08-09T03:04:17.002Z,2.13
2022-08-09T03:06:39.618Z,2.67
2022-08-09T03:09:09.514Z,2.63
2022-08-09T03:12:06.629Z,2.20
2022-08-09T03:14:28.233Z,2.10
2022-08-09T03:16:59.095Z,2.30
2022-08-09T03:19:52.461Z,2.50
2022-08-09T03:22:29.854Z,2.37
2022-08-09T03:25:21.908Z,2.27
2022-08-09T03:27:50.734Z,2.20
2022-08-09T03:30:29.781Z,2.23
2022-08-09T03:33:13.172Z,2.40
2022-08-09T03:36:13.034Z,1.90
2022-08-09T03:38:37.158Z,2.50
2022-08-09T03:41:10.145Z,2.10
2022-08-09T03:44:03.739Z,2.20
2022-08-09T03:46:32.548Z,2.17
2022-08-09T03:49:08.138Z,2.10
2022-08-09T03:51:56.576Z,1.90
2022-08-09T03:54:31.114Z,2.10
2022-08-09T03:57:04.027Z,2.30
2022-08-09T03:59:53.061Z,2.40
2022-08-09T04:02:26.733Z,2.10
2022-08-09T04:04:58.678Z,1.97
2022-08-09T04:07:47.776Z,2.40
2022-08-09T04:10:20.377Z,2.43
2022-08-09T04:12:51.629Z,2.80
2022-08-09T04:15:38.888Z,2.67
2022-08-09T04:18:09.622Z,2.27
2022-08-09T04:20:47.699Z,2.07
2022-08-09T04:23:17.018Z,2.10
2022-08-09T04:25:51.818Z,2.50
2022-08-09T04:28:34.240Z,2.20
2022-08-09T04:31:09.185Z,2.37
2022-08-09T04:33:47.415Z,2.40
2022-08-09T04:36:24.556Z,1.83
2022-08-09T04:38:53.431Z,1.90
2022-08-09T04:41:23.687Z,2.00
2022-08-09T04:44:05.309Z,2.30
2022-08-09T04:46:38.317Z,2.10
2022-08-09T04:49:40.086Z,2.20
2022-08-09T04:52:18.450Z,2.40
2022-08-09T04:54:54.819Z,2.20
2022-08-09T04:57:25.100Z,2.27
2022-08-09T04:59:54.346Z,2.77
2022-08-09T05:02:22.838Z,2.27
2022-08-09T05:04:55.452Z,2.47
2022-08-09T05:07:29.278Z,2.10
2022-08-09T05:10:01.985Z,2.30
2022-08-09T05:12:31.182Z,2.20
2022-08-09T05:15:03.649Z,2.70
2022-08-09T05:18:37.820Z,2.90
2022-08-09T05:20:29.759Z,3.47
2022-08-09T05:23:57.103Z,3.27
2022-08-09T05:25:50.965Z,3.50
2022-08-09T05:28:19.705Z,3.53
2022-08-09T05:30:48.200Z,3.40
2022-08-09T05:33:16.794Z,3.30
2022-08-09T05:35:49.775Z,3.13
2022-08-09T05:38:21.689Z,3.80
2022-08-09T05:40:50.748Z,3.40
2022-08-09T05:43:20.710Z,3.10
2022-08-09T05:45:55.825Z,3.53
2022-08-09T05:48:32.718Z,3.30
2022-08-09T05:51:42.813Z,3.20
2022-08-09T05:53:57.253Z,3.17
2022-08-09T05:56:26.943Z,2.73
2022-08-09T05:58:58.636Z,3.27
2022-08-09T06:01:27.394Z,2.80
2022-08-09T06:04:05.599Z,3.10
2022-08-09T06:06:34.096Z,2.87
2022-08-09T06:09:05.490Z,2.50
2022-08-09T06:11:41.096Z,2.80
2022-08-09T06:14:25.810Z,2.60
2022-08-09T06:16:55.494Z,2.50
2022-08-09T06:19:27.537Z,2.40
2022-08-09T06:21:58.733Z,2.17
2022-08-09T06:24:29.374Z,2.30
2022-08-09T06:26:58.130Z,2.40
2022-08-09T06:29:27.147Z,2.30
2022-08-09T06:32:17.230Z,2.10
2022-08-09T06:34:44.677Z,1.90
2022-08-09T06:37:14.822Z,1.83
2022-08-09T06:39:57.910Z,2.00
2022-08-09T06:42:30.536Z,2.03
2022-08-09T06:44:59.275Z,2.30
2022-08-09T06:47:39.478Z,2.20
2022-08-09T06:50:14.366Z,2.10
2022-08-09T06:52:48.718Z,1.83
2022-08-09T06:55:22.417Z,1.93
2022-08-09T06:58:02.661Z,1.80
2022-08-09T07:00:57.038Z,1.80
2022-08-09T07:03:28.385Z,1.77
2022-08-09T07:06:02.273Z,1.80
2022-08-09T07:08:32.031Z,1.63
2022-08-09T07:11:03.300Z,1.70
2022-08-09T07:13:45.422Z,1.80
2022-08-09T07:16:42.254Z,1.90
2022-08-09T07:19:10.762Z,1.73
2022-08-09T07:21:55.338Z,1.87
2022-08-09T07:24:31.514Z,1.37
2022-08-09T07:27:26.345Z,1.33
2022-08-09T07:30:00.094Z,1.40
2022-08-09T07:32:33.527Z,1.10
2022-08-09T07:35:08.073Z,1.37
2022-08-09T07:37:42.902Z,1.30
2022-08-09T07:40:13.349Z,1.17
2022-08-09T07:42:54.476Z,1.23
2022-08-09T07:45:38.169Z,1.23
2022-08-09T07:48:25.888Z,1.33
2022-08-09T07:51:09.559Z,1.20
2022-08-09T07:54:04.897Z,1.13
2022-08-09T07:56:34.147Z,1.30
2022-08-09T07:59:08.772Z,1.20
2022-08-09T08:01:52.895Z,1.20
2022-08-09T08:04:25.532Z,1.20
2022-08-09T08:07:14.882Z,1.33
2022-08-09T08:09:55.041Z,1.33
2022-08-09T08:12:42.292Z,1.10
2022-08-09T08:15:14.237Z,1.43
2022-08-09T08:17:53.884Z,1.20
2022-08-09T08:20:27.328Z,1.10
2022-08-09T08:23:01.465Z,1.20
2022-08-09T08:25:44.668Z,1.30
2022-08-09T08:28:15.704Z,1.20
2022-08-09T08:30:48.819Z,1.23
2022-08-09T08:33:22.908Z,1.47
2022-08-09T08:35:59.252Z,1.40
2022-08-09T08:38:29.121Z,1.20
2022-08-09T08:40:58.491Z,1.20
2022-08-09T08:43:27.643Z,1.23
2022-08-09T08:46:10.013Z,1.40
2022-08-09T08:48:51.945Z,1.40
2022-08-09T08:51:22.748Z,1.40
2022-08-09T08:54:02.914Z,1.40
2022-08-09T08:56:35.294Z,1.40
2022-08-09T08:59:07.760Z,1.30
2022-08-09T09:01:57.214Z,1.20
2022-08-09T09:04:27.734Z,1.23
2022-08-09T09:06:58.481Z,1.20
2022-08-09T09:09:57.951Z,1.30
2022-08-09T09:12:17.437Z,1.13
2022-08-09T09:14:46.727Z,1.37
2022-08-09T09:17:16.749Z,1.30
2022-08-09T09:19:45.765Z,1.30
2022-08-09T09:22:15.960Z,1.30
2022-08-09T09:24:45.439Z,1.40
2022-08-09T09:28:02.839Z,1.47
2022-08-09T09:30:32.901Z,1.10
2022-08-09T09:33:15.395Z,1.27
2022-08-09T09:36:00.745Z,1.30
2022-08-09T09:38:41.489Z,1.20
2022-08-09T09:41:11.846Z,1.27
2022-08-09T09:43:41.246Z,1.30
2022-08-09T09:46:42.252Z,1.10
2022-08-09T09:49:13.949Z,1.20
2022-08-09T09:51:42.857Z,1.20
2022-08-09T09:54:20.269Z,1.30
2022-08-09T09:56:53.239Z,1.40
2022-08-09T09:59:40.375Z,1.30
2022-08-09T10:02:12.934Z,1.33
2022-08-09T10:04:43.338Z,1.10
2022-08-09T10:07:24.584Z,1.20
2022-08-09T10:09:54.961Z,1.30
2022-08-09T10:12:52.108Z,1.00
2022-08-09T10:15:17.716Z,1.30
2022-08-09T10:18:12.626Z,1.20
2022-08-09T10:20:45.346Z,1.23
2022-08-09T10:23:22.186Z,1.40
2022-08-09T10:26:06.266Z,1.17
2022-08-09T10:28:40.139Z,1.30
2022-08-09T10:34:10.616Z,1.30
2022-08-09T10:36:49.888Z,1.10
2022-08-09T10:39:19.961Z,1.30
2022-08-09T10:41:48.647Z,1.57
2022-08-09T10:44:19.401Z,1.20
2022-08-09T10:48:12.257Z,1.20
2022-08-09T10:50:06.701Z,1.20
2022-08-09T10:52:50.396Z,1.20
2022-08-09T10:55:22.647Z,1.27
2022-08-09T10:57:51.743Z,1.00
2022-08-09T11:00:41.648Z,1.20
2022-08-09T11:03:51.349Z,1.13
2022-08-09T11:06:23.187Z,1.20
2022-08-09T11:08:54.124Z,1.10
2022-08-09T11:11:23.977Z,1.17
2022-08-09T11:14:09.510Z,1.10
2022-08-09T11:16:44.930Z,1.13
2022-08-09T11:19:15.594Z,1.10
2022-08-09T11:22:04.996Z,1.17
2022-08-09T11:25:04.490Z,1.20
2022-08-09T11:28:05.537Z,0.90
2022-08-09T11:30:34.615Z,1.10
2022-08-09T11:33:05.924Z,1.17
2022-08-09T11:35:49.136Z,1.10
2022-08-09T11:38:22.573Z,1.00
2022-08-09T11:41:04.012Z,1.10
2022-08-09T11:43:42.650Z,0.90
2022-08-09T11:46:13.261Z,0.97
2022-08-09T11:48:56.129Z,1.60
2022-08-09T11:53:16.694Z,0.80
2022-08-09T11:54:21.660Z,1.00
2022-08-09T11:57:13.450Z,1.03
2022-08-09T11:59:43.373Z,1.00
2022-08-09T12:02:37.168Z,1.10
2022-08-09T12:05:17.476Z,0.90
2022-08-09T12:07:52.751Z,0.90
2022-08-09T12:10:38.240Z,1.07
2022-08-09T12:14:09.379Z,1.10
2022-08-09T12:16:01.982Z,1.00
2022-08-09T12:18:33.542Z,1.10
2022-08-09T12:21:03.425Z,1.00
2022-08-09T12:24:06.565Z,0.90
2022-08-09T12:26:41.994Z,1.00
2022-08-09T12:29:32.818Z,0.90
2022-08-09T12:32:04.477Z,0.93
2022-08-09T12:34:37.526Z,0.93
2022-08-09T12:37:21.962Z,1.10
2022-08-09T12:40:03.058Z,1.17
2022-08-09T12:42:34.732Z,1.30
2022-08-09T12:45:32.410Z,0.90
2022-08-09T12:47:54.227Z,0.97
2022-08-09T12:50:23.536Z,1.00
2022-08-09T12:53:09.221Z,1.10
2022-08-09T12:56:14.001Z,1.03
2022-08-09T12:58:30.558Z,1.07
2022-08-09T13:01:01.552Z,1.30
2022-08-09T13:03:53.400Z,1.10
2022-08-09T13:06:34.500Z,1.20
2022-08-09T13:09:06.332Z,1.10
2022-08-09T13:11:39.412Z,1.17
2022-08-09T13:14:41.026Z,1.10
2022-08-09T13:17:01.240Z,1.10
2022-08-09T13:20:07.754Z,1.10
2022-08-09T13:22:35.194Z,1.00
2022-08-09T13:25:12.180Z,0.98
2022-08-09T13:27:55.289Z,0.93
2022-08-09T13:30:49.944Z,1.05
2022-08-09T13:33:16.949Z,1.02
2022-08-09T13:36:38.655Z,0.90
2022-08-09T13:38:57.973Z,1.13
2022-08-09T13:41:59.139Z,1.15
2022-08-09T13:44:16.940Z,1.10
2022-08-09T13:47:29.744Z,1.05
2022-08-09T13:49:37.760Z,1.10
2022-08-09T13:52:09.661Z,1.10
2022-08-09T13:54:41.753Z,1.20
2022-08-09T13:57:36.629Z,1.10
2022-08-09T14:00:06.564Z,1.10
2022-08-09T14:02:42.182Z,1.30
2022-08-09T14:05:58.480Z,1.00
2022-08-09T14:08:13.045Z,0.98
2022-08-09T14:10:49.129Z,1.23
2022-08-09T14:13:27.608Z,1.15
2022-08-09T14:16:09.074Z,1.25
2022-08-09T14:18:43.401Z,1.25
2022-08-09T14:21:17.956Z,1.20
2022-08-09T14:23:55.358Z,1.33
2022-08-09T14:26:32.165Z,1.20
2022-08-09T14:29:02.980Z,1.20
2022-08-09T14:31:49.622Z,1.17
2022-08-09T14:34:27.406Z,1.30
2022-08-09T14:37:01.741Z,1.20
2022-08-09T14:39:40.349Z,1.30
2022-08-09T14:42:30.425Z,1.33
2022-08-09T14:45:14.853Z,1.10
2022-08-09T14:47:58.843Z,1.27
2022-08-09T14:50:29.071Z,1.17
2022-08-09T14:52:57.831Z,1.15
2022-08-09T14:55:29.221Z,1.10
2022-08-09T14:58:02.833Z,1.27
2022-08-09T15:00:31.986Z,1.30
2022-08-09T15:03:01.683Z,1.30
2022-08-09T15:05:32.236Z,1.58
2022-08-09T15:08:00.617Z,1.05
2022-08-09T15:10:31.668Z,1.17
2022-08-09T15:13:01.464Z,1.25
2022-08-09T15:15:34.331Z,1.20
2022-08-09T15:18:12.509Z,0.93
2022-08-09T15:22:00.756Z,1.00
2022-08-09T15:24:01.797Z,0.90
2022-08-09T15:26:30.806Z,1.20
2022-08-09T15:29:02.545Z,1.23
2022-08-09T15:31:41.698Z,1.10
2022-08-09T15:34:33.611Z,1.10
2022-08-09T15:36:59.630Z,1.02
2022-08-09T15:39:35.155Z,1.00
2022-08-09T15:42:19.277Z,1.20
2022-08-09T15:44:47.779Z,1.20
2022-08-09T15:47:21.661Z,1.00
2022-08-09T15:50:04.357Z,1.10
2022-08-09T15:52:34.780Z,1.20
2022-08-09T15:55:04.031Z,1.58
2022-08-09T15:57:44.056Z,1.42
2022-08-09T16:00:25.402Z,1.20
2022-08-09T16:02:56.477Z,1.20
2022-08-09T16:05:26.664Z,1.10
2022-08-09T16:08:29.623Z,1.35
2022-08-09T16:10:59.858Z,1.10
2022-08-09T16:14:05.061Z,1.30
2022-08-09T16:16:20.056Z,1.30
2022-08-09T16:18:54.609Z,1.67
2022-08-09T16:21:25.590Z,1.30
2022-08-09T16:23:58.374Z,1.35
2022-08-09T16:26:33.485Z,1.20
2022-08-09T16:29:10.451Z,1.40
2022-08-09T16:32:12.641Z,1.20
2022-08-09T16:34:29.631Z,1.48
2022-08-09T16:37:18.474Z,1.38
2022-08-09T16:40:02.678Z,1.38
2022-08-09T16:42:34.669Z,1.20
2022-08-09T16:45:05.759Z,1.30
2022-08-09T16:48:43.170Z,1.30
2022-08-09T16:50:29.208Z,1.23
2022-08-09T16:52:59.536Z,1.30
2022-08-09T16:55:31.478Z,1.40
2022-08-09T16:58:17.037Z,1.40
2022-08-09T17:00:47.325Z,1.40
2022-08-09T17:03:21.692Z,1.37
2022-08-09T17:06:08.355Z,1.40
2022-08-09T17:08:59.920Z,1.50
2022-08-09T17:11:37.636Z,1.53
2022-08-09T17:14:26.704Z,1.30
2022-08-09T17:16:59.871Z,1.30
2022-08-09T17:19:47.478Z,1.50
2022-08-09T17:22:24.201Z,1.50
2022-08-09T17:25:02.687Z,1.50
2022-08-09T17:27:31.402Z,1.50
2022-08-09T17:29:59.904Z,1.60
2022-08-09T17:32:37.889Z,1.57
2022-08-09T17:35:11.402Z,1.60
2022-08-09T17:38:14.487Z,1.40
2022-08-09T17:40:29.863Z,1.43
2022-08-09T17:42:59.776Z,1.83
2022-08-09T17:46:04.213Z,1.60
2022-08-09T17:48:29.634Z,1.80
2022-08-09T17:51:01.723Z,1.50
2022-08-09T17:53:42.883Z,1.50
2022-08-09T17:56:12.418Z,1.70
2022-08-09T17:58:42.798Z,1.70
2022-08-09T18:01:22.405Z,1.60
2022-08-09T18:03:54.699Z,1.57
2022-08-09T18:06:32.338Z,1.80
2022-08-09T18:09:03.389Z,1.80
2022-08-09T18:12:05.925Z,1.90
2022-08-09T18:14:22.503Z,1.80
2022-08-09T18:16:51.075Z,1.77
2022-08-09T18:20:54.999Z,1.93
2022-08-09T18:22:13.110Z,2.10
2022-08-09T18:24:45.967Z,1.67
2022-08-09T18:27:18.833Z,1.63
2022-08-09T18:30:41.164Z,1.70
2022-08-09T18:32:54.715Z,1.90
2022-08-09T18:35:48.130Z,2.27
2022-08-09T18:38:13.539Z,1.87
2022-08-09T18:40:43.088Z,1.90
2022-08-09T18:43:12.845Z,1.90
2022-08-09T18:46:49.337Z,2.10
2022-08-09T18:48:33.028Z,2.10
2022-08-09T18:51:02.903Z,2.00
2022-08-09T18:53:55.938Z,2.03
2022-08-09T18:56:27.811Z,2.27
2022-08-09T18:58:57.140Z,1.80
2022-08-09T19:01:25.955Z,2.03
2022-08-09T19:04:06.319Z,1.93
2022-08-09T19:06:38.927Z,2.20
2022-08-09T19:09:13.505Z,1.93
2022-08-09T19:11:49.415Z,2.50
2022-08-09T19:14:24.305Z,2.10
2022-08-09T19:16:57.959Z,2.30
2022-08-09T19:19:28.000Z,2.30
2022-08-09T19:22:06.581Z,2.23
2022-08-09T19:25:11.980Z,2.40
2022-08-09T19:27:28.566Z,2.33
2022-08-09T19:30:24.715Z,2.10
2022-08-09T19:32:45.890Z,2.20
2022-08-09T19:35:26.258Z,2.30
2022-08-09T19:37:58.059Z,2.53
2022-08-09T19:40:33.383Z,2.60
2022-08-09T19:43:05.241Z,2.50
2022-08-09T19:45:40.345Z,2.40
2022-08-09T19:48:11.920Z,2.80
2022-08-09T19:50:51.006Z,2.60
2022-08-09T19:53:26.496Z,3.40
2022-08-09T19:56:06.061Z,2.90
2022-08-09T19:58:35.054Z,2.67
2022-08-09T20:01:04.307Z,2.73
2022-08-09T20:04:10.708Z,3.33
2022-08-09T20:06:23.604Z,2.90
2022-08-09T20:08:59.625Z,2.93
2022-08-09T20:11:42.972Z,2.67
2022-08-09T20:14:15.617Z,3.10
2022-08-09T20:16:53.942Z,3.00
2022-08-09T20:19:47.987Z,2.80
2022-08-09T20:22:14.485Z,3.20
2022-08-09T20:24:53.297Z,2.83
2022-08-09T20:27:23.062Z,3.30
2022-08-09T20:29:51.478Z,3.03
2022-08-09T20:32:33.178Z,2.77
2022-08-09T20:35:02.789Z,2.80
2022-08-09T20:38:08.659Z,3.37
2022-08-09T20:40:26.963Z,2.63
2022-08-09T20:43:12.036Z,2.97
2022-08-09T20:46:01.866Z,3.20
2022-08-09T20:48:33.240Z,2.80
2022-08-09T20:51:03.190Z,2.67
2022-08-09T20:53:35.207Z,3.07
2022-08-09T20:56:08.805Z,2.80
2022-08-09T20:58:38.021Z,3.23
2022-08-09T21:01:32.269Z,2.83
2022-08-09T21:05:48.262Z,2.70
2022-08-09T21:06:44.978Z,2.50
2022-08-09T21:09:14.323Z,2.93
2022-08-09T21:14:38.290Z,2.60
2022-08-09T21:18:10.964Z,2.90
2022-08-09T21:20:14.589Z,2.77
2022-08-09T21:22:47.093Z,2.70
2022-08-09T21:25:38.961Z,2.80
2022-08-09T21:28:15.781Z,2.87
2022-08-09T21:30:44.942Z,2.83
2022-08-09T21:33:16.048Z,2.80
2022-08-09T21:35:51.144Z,2.70
2022-08-09T21:38:31.190Z,2.80
2022-08-09T21:41:00.089Z,2.80
2022-08-09T21:43:56.090Z,2.80
2022-08-09T21:46:18.398Z,2.60
2022-08-09T21:48:49.326Z,2.70
2022-08-09T21:51:24.434Z,2.83
2022-08-09T21:54:05.288Z,2.40
2022-08-09T21:56:43.303Z,2.90
2022-08-09T21:59:25.580Z,2.63
2022-08-09T22:02:01.115Z,2.70
2022-08-09T22:04:57.065Z,2.50
2022-08-09T22:07:35.487Z,2.70
2022-08-09T22:10:08.749Z,2.77
2022-08-09T22:12:38.806Z,2.40
2022-08-09T22:15:16.485Z,2.60
2022-08-09T22:17:46.236Z,2.33
2022-08-09T22:20:16.994Z,2.70
2022-08-09T22:22:50.740Z,3.37
2022-08-09T22:26:07.089Z,3.10
2022-08-09T22:28:08.143Z,2.67
2022-08-09T22:30:37.926Z,3.00
2022-08-09T22:33:10.395Z,2.60
2022-08-09T22:36:02.469Z,2.83
2022-08-09T22:38:27.338Z,2.80
2022-08-09T22:40:57.904Z,2.53
2022-08-09T22:44:02.167Z,2.60
2022-08-09T22:48:14.555Z,2.77
2022-08-09T22:49:09.520Z,2.70
2022-08-09T22:51:43.503Z,2.87
2022-08-09T22:54:21.157Z,2.77
2022-08-09T22:56:50.883Z,2.90
2022-08-09T22:59:55.772Z,2.50
2022-08-09T23:02:15.712Z,2.73
2022-08-09T23:04:53.902Z,2.80
2022-08-09T23:08:23.214Z,3.00
2022-08-09T23:10:29.541Z,3.10
2022-08-09T23:12:57.942Z,2.93
2022-08-09T23:15:26.300Z,2.60
2022-08-09T23:17:56.368Z,3.17
2022-08-09T23:20:26.369Z,3.10
2022-08-09T23:22:54.695Z,2.80
2022-08-09T23:25:25.385Z,3.10
2022-08-09T23:27:57.177Z,3.07
2022-08-09T23:30:51.302Z,2.70
2022-08-09T23:33:21.846Z,3.00
2022-08-09T23:36:05.979Z,3.17
2022-08-09T23:38:36.069Z,2.63
2022-08-09T23:41:28.464Z,2.80
2022-08-09T23:43:58.093Z,2.90
2022-08-09T23:46:26.534Z,2.90
2022-08-09T23:48:56.194Z,2.97
2022-08-09T23:51:24.840Z,2.60
2022-08-09T23:53:55.317Z,2.70
2022-08-09T23:56:53.766Z,2.93
2022-08-09T23:59:20.582Z,2.70
